sensor_id;sensor_type;location;lat;lon;timestamp;P1;durP1;ratioP1;P2;durP2;ratioP2
68870;SDS011;55906;52.278;6.808;2022-09-13T00:01:01;10.57;;;7.70;;
68870;SDS011;55906;52.278;6.808;2022-09-13T00:03:29;9.80;;;6.90;;
68870;SDS011;55906;52.278;6.808;2022-09-13T00:05:56;10.82;;;7.85;;
68870;SDS011;55906;52.278;6.808;2022-09-13T00:08:23;10.10;;;7.63;;
68870;SDS011;55906;52.278;6.808;2022-09-13T00:10:50;9.07;;;6.90;;
68870;SDS011;55906;52.278;6.808;2022-09-13T00:13:17;8.73;;;6.70;;
68870;SDS011;55906;52.278;6.808;2022-09-13T00:15:44;9.63;;;6.30;;
68870;SDS011;55906;52.278;6.808;2022-09-13T00:18:11;10.50;;;7.35;;
68870;SDS011;55906;52.278;6.808;2022-09-13T00:20:39;8.68;;;6.30;;
68870;SDS011;55906;52.278;6.808;2022-09-13T00:23:06;10.52;;;6.88;;
68870;SDS011;55906;52.278;6.808;2022-09-13T00:25:33;9.85;;;7.47;;
68870;SDS011;55906;52.278;6.808;2022-09-13T00:28:00;8.80;;;6.47;;
68870;SDS011;55906;52.278;6.808;2022-09-13T00:30:30;8.30;;;5.88;;
68870;SDS011;55906;52.278;6.808;2022-09-13T00:33:09;7.85;;;5.53;;
68870;SDS011;55906;52.278;6.808;2022-09-13T00:35:35;7.63;;;5.85;;
68870;SDS011;55906;52.278;6.808;2022-09-13T00:38:03;8.60;;;6.22;;
68870;SDS011;55906;52.278;6.808;2022-09-13T00:40:30;10.93;;;7.87;;
68870;SDS011;55906;52.278;6.808;2022-09-13T00:43:02;8.68;;;6.43;;
68870;SDS011;55906;52.278;6.808;2022-09-13T00:45:29;9.98;;;6.60;;
68870;SDS011;55906;52.278;6.808;2022-09-13T00:47:56;10.02;;;6.85;;
68870;SDS011;55906;52.278;6.808;2022-09-13T00:50:28;8.80;;;6.25;;
68870;SDS011;55906;52.278;6.808;2022-09-13T00:53:12;10.40;;;6.93;;
68870;SDS011;55906;52.278;6.808;2022-09-13T00:55:45;9.07;;;6.15;;
68870;SDS011;55906;52.278;6.808;2022-09-13T00:58:17;9.27;;;6.93;;
68870;SDS011;55906;52.278;6.808;2022-09-13T01:00:47;7.95;;;6.32;;
68870;SDS011;55906;52.278;6.808;2022-09-13T01:03:15;9.20;;;6.95;;
68870;SDS011;55906;52.278;6.808;2022-09-13T01:05:45;7.30;;;4.90;;
68870;SDS011;55906;52.278;6.808;2022-09-13T01:08:17;7.07;;;5.28;;
68870;SDS011;55906;52.278;6.808;2022-09-13T01:10:47;8.10;;;6.07;;
68870;SDS011;55906;52.278;6.808;2022-09-13T01:13:15;8.68;;;6.10;;
68870;SDS011;55906;52.278;6.808;2022-09-13T01:15:44;10.30;;;7.18;;
68870;SDS011;55906;52.278;6.808;2022-09-13T01:18:12;8.37;;;6.30;;
68870;SDS011;55906;52.278;6.808;2022-09-13T01:20:43;7.93;;;6.18;;
68870;SDS011;55906;52.278;6.808;2022-09-13T01:26:34;8.45;;;5.72;;
68870;SDS011;55906;52.278;6.808;2022-09-13T01:29:31;8.00;;;5.78;;
68870;SDS011;55906;52.278;6.808;2022-09-13T01:32:17;8.13;;;5.67;;
68870;SDS011;55906;52.278;6.808;2022-09-13T01:34:54;7.50;;;5.70;;
68870;SDS011;55906;52.278;6.808;2022-09-13T01:40:23;8.85;;;6.72;;
68870;SDS011;55906;52.278;6.808;2022-09-13T01:43:05;8.10;;;5.93;;
68870;SDS011;55906;52.278;6.808;2022-09-13T01:45:44;7.67;;;5.50;;
68870;SDS011;55906;52.278;6.808;2022-09-13T01:48:20;8.32;;;5.20;;
68870;SDS011;55906;52.278;6.808;2022-09-13T01:50:56;10.70;;;7.93;;
68870;SDS011;55906;52.278;6.808;2022-09-13T01:53:30;9.93;;;8.55;;
68870;SDS011;55906;52.278;6.808;2022-09-13T01:56:03;8.15;;;6.18;;
68870;SDS011;55906;52.278;6.808;2022-09-13T01:58:36;8.67;;;6.20;;
68870;SDS011;55906;52.278;6.808;2022-09-13T02:01:09;7.88;;;5.97;;
68870;SDS011;55906;52.278;6.808;2022-09-13T02:03:42;9.10;;;5.93;;
68870;SDS011;55906;52.278;6.808;2022-09-13T02:06:14;7.50;;;5.70;;
68870;SDS011;55906;52.278;6.808;2022-09-13T02:08:45;8.20;;;5.97;;
68870;SDS011;55906;52.278;6.808;2022-09-13T02:11:15;8.13;;;5.77;;
68870;SDS011;55906;52.278;6.808;2022-09-13T02:13:45;8.20;;;6.28;;
68870;SDS011;55906;52.278;6.808;2022-09-13T02:16:16;7.57;;;5.45;;
68870;SDS011;55906;52.278;6.808;2022-09-13T02:18:53;8.05;;;5.50;;
68870;SDS011;55906;52.278;6.808;2022-09-13T02:21:24;7.43;;;5.60;;
68870;SDS011;55906;52.278;6.808;2022-09-13T02:23:54;6.87;;;5.10;;
68870;SDS011;55906;52.278;6.808;2022-09-13T02:26:25;8.02;;;6.13;;
68870;SDS011;55906;52.278;6.808;2022-09-13T02:28:56;6.95;;;5.25;;
68870;SDS011;55906;52.278;6.808;2022-09-13T02:31:28;7.75;;;5.28;;
68870;SDS011;55906;52.278;6.808;2022-09-13T02:34:00;6.90;;;5.00;;
68870;SDS011;55906;52.278;6.808;2022-09-13T02:36:31;8.23;;;5.70;;
68870;SDS011;55906;52.278;6.808;2022-09-13T02:39:02;8.73;;;6.18;;
68870;SDS011;55906;52.278;6.808;2022-09-13T02:41:33;8.43;;;5.70;;
68870;SDS011;55906;52.278;6.808;2022-09-13T02:44:06;7.82;;;5.75;;
68870;SDS011;55906;52.278;6.808;2022-09-13T02:46:42;7.82;;;5.15;;
68870;SDS011;55906;52.278;6.808;2022-09-13T02:49:24;9.73;;;6.43;;
68870;SDS011;55906;52.278;6.808;2022-09-13T02:51:56;8.63;;;5.82;;
68870;SDS011;55906;52.278;6.808;2022-09-13T02:54:31;7.13;;;5.10;;
68870;SDS011;55906;52.278;6.808;2022-09-13T02:57:07;6.90;;;5.03;;
68870;SDS011;55906;52.278;6.808;2022-09-13T02:59:40;7.05;;;5.30;;
68870;SDS011;55906;52.278;6.808;2022-09-13T03:02:11;6.67;;;4.77;;
68870;SDS011;55906;52.278;6.808;2022-09-13T03:04:42;7.00;;;4.72;;
68870;SDS011;55906;52.278;6.808;2022-09-13T03:07:09;6.47;;;4.68;;
68870;SDS011;55906;52.278;6.808;2022-09-13T03:09:46;8.52;;;5.30;;
68870;SDS011;55906;52.278;6.808;2022-09-13T03:12:23;7.78;;;5.82;;
68870;SDS011;55906;52.278;6.808;2022-09-13T03:15:07;9.33;;;6.13;;
68870;SDS011;55906;52.278;6.808;2022-09-13T03:17:45;8.88;;;5.93;;
68870;SDS011;55906;52.278;6.808;2022-09-13T03:20:23;8.82;;;6.32;;
68870;SDS011;55906;52.278;6.808;2022-09-13T03:22:59;7.80;;;6.13;;
68870;SDS011;55906;52.278;6.808;2022-09-13T03:25:58;7.88;;;5.63;;
68870;SDS011;55906;52.278;6.808;2022-09-13T03:28:37;7.50;;;5.80;;
68870;SDS011;55906;52.278;6.808;2022-09-13T03:31:13;7.82;;;6.00;;
68870;SDS011;55906;52.278;6.808;2022-09-13T03:33:46;6.85;;;5.07;;
68870;SDS011;55906;52.278;6.808;2022-09-13T03:36:19;7.43;;;4.93;;
68870;SDS011;55906;52.278;6.808;2022-09-13T03:38:53;7.75;;;5.63;;
68870;SDS011;55906;52.278;6.808;2022-09-13T03:41:26;8.20;;;5.40;;
68870;SDS011;55906;52.278;6.808;2022-09-13T03:43:58;7.63;;;5.47;;
68870;SDS011;55906;52.278;6.808;2022-09-13T03:46:28;7.93;;;5.38;;
68870;SDS011;55906;52.278;6.808;2022-09-13T03:48:59;8.20;;;5.40;;
68870;SDS011;55906;52.278;6.808;2022-09-13T03:51:31;6.95;;;4.78;;
68870;SDS011;55906;52.278;6.808;2022-09-13T03:53:58;7.73;;;5.63;;
68870;SDS011;55906;52.278;6.808;2022-09-13T03:56:27;7.72;;;5.50;;
68870;SDS011;55906;52.278;6.808;2022-09-13T03:58:54;8.00;;;5.82;;
68870;SDS011;55906;52.278;6.808;2022-09-13T04:01:22;9.07;;;6.75;;
68870;SDS011;55906;52.278;6.808;2022-09-13T04:03:49;8.43;;;6.45;;
68870;SDS011;55906;52.278;6.808;2022-09-13T04:06:16;10.30;;;7.00;;
68870;SDS011;55906;52.278;6.808;2022-09-13T04:08:45;9.40;;;6.80;;
68870;SDS011;55906;52.278;6.808;2022-09-13T04:11:12;9.60;;;7.00;;
68870;SDS011;55906;52.278;6.808;2022-09-13T04:13:38;8.05;;;5.65;;
68870;SDS011;55906;52.278;6.808;2022-09-13T04:16:06;8.35;;;6.07;;
68870;SDS011;55906;52.278;6.808;2022-09-13T04:18:33;8.97;;;6.30;;
68870;SDS011;55906;52.278;6.808;2022-09-13T04:21:00;9.20;;;6.35;;
68870;SDS011;55906;52.278;6.808;2022-09-13T04:23:28;7.20;;;5.60;;
68870;SDS011;55906;52.278;6.808;2022-09-13T04:26:00;7.60;;;5.53;;
68870;SDS011;55906;52.278;6.808;2022-09-13T04:28:28;7.63;;;5.60;;
68870;SDS011;55906;52.278;6.808;2022-09-13T04:30:55;7.30;;;5.70;;
68870;SDS011;55906;52.278;6.808;2022-09-13T04:33:22;7.97;;;5.68;;
68870;SDS011;55906;52.278;6.808;2022-09-13T04:35:52;7.53;;;5.70;;
68870;SDS011;55906;52.278;6.808;2022-09-13T04:38:19;8.88;;;6.68;;
68870;SDS011;55906;52.278;6.808;2022-09-13T04:40:50;7.65;;;5.93;;
68870;SDS011;55906;52.278;6.808;2022-09-13T04:43:19;9.57;;;6.53;;
68870;SDS011;55906;52.278;6.808;2022-09-13T04:45:45;9.40;;;6.95;;
68870;SDS011;55906;52.278;6.808;2022-09-13T04:48:12;8.95;;;6.22;;
68870;SDS011;55906;52.278;6.808;2022-09-13T04:50:39;9.88;;;6.63;;
68870;SDS011;55906;52.278;6.808;2022-09-13T04:53:06;8.45;;;6.25;;
68870;SDS011;55906;52.278;6.808;2022-09-13T04:55:33;7.87;;;5.87;;
68870;SDS011;55906;52.278;6.808;2022-09-13T04:58:00;8.45;;;6.32;;
68870;SDS011;55906;52.278;6.808;2022-09-13T05:00:29;11.57;;;8.20;;
68870;SDS011;55906;52.278;6.808;2022-09-13T05:02:56;11.02;;;8.00;;
68870;SDS011;55906;52.278;6.808;2022-09-13T05:05:23;10.65;;;6.85;;
68870;SDS011;55906;52.278;6.808;2022-09-13T05:07:52;11.53;;;8.20;;
68870;SDS011;55906;52.278;6.808;2022-09-13T05:10:19;11.00;;;7.65;;
68870;SDS011;55906;52.278;6.808;2022-09-13T05:12:46;11.40;;;8.55;;
68870;SDS011;55906;52.278;6.808;2022-09-13T05:15:13;11.90;;;9.27;;
68870;SDS011;55906;52.278;6.808;2022-09-13T05:17:41;11.52;;;8.57;;
68870;SDS011;55906;52.278;6.808;2022-09-13T05:20:08;12.20;;;9.13;;
68870;SDS011;55906;52.278;6.808;2022-09-13T05:22:35;13.52;;;9.32;;
68870;SDS011;55906;52.278;6.808;2022-09-13T05:25:02;12.30;;;8.30;;
68870;SDS011;55906;52.278;6.808;2022-09-13T05:27:29;12.15;;;8.35;;
68870;SDS011;55906;52.278;6.808;2022-09-13T05:29:56;10.65;;;7.72;;
68870;SDS011;55906;52.278;6.808;2022-09-13T05:32:22;11.57;;;8.17;;
68870;SDS011;55906;52.278;6.808;2022-09-13T05:34:50;12.63;;;8.60;;
68870;SDS011;55906;52.278;6.808;2022-09-13T05:37:17;13.43;;;9.20;;
68870;SDS011;55906;52.278;6.808;2022-09-13T05:39:45;14.40;;;9.80;;
68870;SDS011;55906;52.278;6.808;2022-09-13T05:42:12;11.73;;;8.73;;
68870;SDS011;55906;52.278;6.808;2022-09-13T05:44:39;11.80;;;8.70;;
68870;SDS011;55906;52.278;6.808;2022-09-13T05:47:05;14.27;;;10.13;;
68870;SDS011;55906;52.278;6.808;2022-09-13T05:49:32;12.93;;;9.10;;
68870;SDS011;55906;52.278;6.808;2022-09-13T05:52:00;15.60;;;11.68;;
68870;SDS011;55906;52.278;6.808;2022-09-13T05:54:27;24.30;;;15.57;;
68870;SDS011;55906;52.278;6.808;2022-09-13T05:56:53;14.47;;;10.80;;
68870;SDS011;55906;52.278;6.808;2022-09-13T05:59:21;18.38;;;13.32;;
68870;SDS011;55906;52.278;6.808;2022-09-13T06:01:48;17.70;;;13.25;;
68870;SDS011;55906;52.278;6.808;2022-09-13T06:04:14;19.40;;;12.82;;
68870;SDS011;55906;52.278;6.808;2022-09-13T06:06:41;19.17;;;14.52;;
68870;SDS011;55906;52.278;6.808;2022-09-13T06:09:10;16.87;;;11.53;;
68870;SDS011;55906;52.278;6.808;2022-09-13T06:11:37;18.80;;;13.10;;
68870;SDS011;55906;52.278;6.808;2022-09-13T06:14:03;23.05;;;15.15;;
68870;SDS011;55906;52.278;6.808;2022-09-13T06:16:30;18.55;;;13.57;;
68870;SDS011;55906;52.278;6.808;2022-09-13T06:18:56;17.70;;;12.23;;
68870;SDS011;55906;52.278;6.808;2022-09-13T06:21:23;15.47;;;11.77;;
68870;SDS011;55906;52.278;6.808;2022-09-13T06:23:51;15.88;;;11.13;;
68870;SDS011;55906;52.278;6.808;2022-09-13T06:26:21;13.40;;;9.35;;
68870;SDS011;55906;52.278;6.808;2022-09-13T06:28:49;17.48;;;12.15;;
68870;SDS011;55906;52.278;6.808;2022-09-13T06:31:18;12.45;;;9.48;;
68870;SDS011;55906;52.278;6.808;2022-09-13T06:33:46;13.73;;;9.77;;
68870;SDS011;55906;52.278;6.808;2022-09-13T06:36:13;18.27;;;13.10;;
68870;SDS011;55906;52.278;6.808;2022-09-13T06:38:42;18.38;;;12.82;;
68870;SDS011;55906;52.278;6.808;2022-09-13T06:41:10;17.80;;;12.35;;
68870;SDS011;55906;52.278;6.808;2022-09-13T06:43:39;14.63;;;10.55;;
68870;SDS011;55906;52.278;6.808;2022-09-13T06:46:07;15.80;;;10.67;;
68870;SDS011;55906;52.278;6.808;2022-09-13T06:48:39;13.68;;;10.52;;
68870;SDS011;55906;52.278;6.808;2022-09-13T06:51:09;14.18;;;10.95;;
68870;SDS011;55906;52.278;6.808;2022-09-13T06:53:37;17.73;;;12.48;;
68870;SDS011;55906;52.278;6.808;2022-09-13T06:56:05;22.70;;;15.68;;
68870;SDS011;55906;52.278;6.808;2022-09-13T06:58:33;24.67;;;15.90;;
68870;SDS011;55906;52.278;6.808;2022-09-13T07:01:19;14.95;;;10.23;;
68870;SDS011;55906;52.278;6.808;2022-09-13T07:03:47;22.00;;;14.32;;
68870;SDS011;55906;52.278;6.808;2022-09-13T07:06:16;19.17;;;13.63;;
68870;SDS011;55906;52.278;6.808;2022-09-13T07:08:43;16.05;;;11.52;;
68870;SDS011;55906;52.278;6.808;2022-09-13T07:11:12;16.13;;;11.80;;
68870;SDS011;55906;52.278;6.808;2022-09-13T07:13:45;21.50;;;15.43;;
68870;SDS011;55906;52.278;6.808;2022-09-13T07:16:15;16.83;;;12.52;;
68870;SDS011;55906;52.278;6.808;2022-09-13T07:18:42;17.35;;;11.98;;
68870;SDS011;55906;52.278;6.808;2022-09-13T07:21:09;19.98;;;13.98;;
68870;SDS011;55906;52.278;6.808;2022-09-13T07:23:37;18.30;;;13.70;;
68870;SDS011;55906;52.278;6.808;2022-09-13T07:26:05;20.00;;;12.20;;
68870;SDS011;55906;52.278;6.808;2022-09-13T07:28:34;19.88;;;13.45;;
68870;SDS011;55906;52.278;6.808;2022-09-13T07:31:05;22.05;;;13.10;;
68870;SDS011;55906;52.278;6.808;2022-09-13T07:33:35;22.02;;;13.85;;
68870;SDS011;55906;52.278;6.808;2022-09-13T07:36:02;17.90;;;12.03;;
68870;SDS011;55906;52.278;6.808;2022-09-13T07:38:31;17.38;;;11.05;;
68870;SDS011;55906;52.278;6.808;2022-09-13T07:40:58;16.95;;;11.15;;
68870;SDS011;55906;52.278;6.808;2022-09-13T07:43:25;16.77;;;12.02;;
68870;SDS011;55906;52.278;6.808;2022-09-13T07:45:56;15.88;;;11.38;;
68870;SDS011;55906;52.278;6.808;2022-09-13T07:48:23;14.70;;;10.47;;
68870;SDS011;55906;52.278;6.808;2022-09-13T07:51:00;16.35;;;10.85;;
68870;SDS011;55906;52.278;6.808;2022-09-13T07:53:28;17.77;;;12.95;;
68870;SDS011;55906;52.278;6.808;2022-09-13T07:55:58;18.35;;;12.50;;
68870;SDS011;55906;52.278;6.808;2022-09-13T07:58:26;15.65;;;11.07;;
68870;SDS011;55906;52.278;6.808;2022-09-13T08:00:52;17.10;;;9.83;;
68870;SDS011;55906;52.278;6.808;2022-09-13T08:03:19;14.10;;;10.13;;
68870;SDS011;55906;52.278;6.808;2022-09-13T08:05:46;13.80;;;9.05;;
68870;SDS011;55906;52.278;6.808;2022-09-13T08:08:14;12.55;;;8.80;;
68870;SDS011;55906;52.278;6.808;2022-09-13T08:10:40;12.55;;;8.55;;
68870;SDS011;55906;52.278;6.808;2022-09-13T08:13:07;12.47;;;7.00;;
68870;SDS011;55906;52.278;6.808;2022-09-13T08:15:33;11.73;;;7.20;;
68870;SDS011;55906;52.278;6.808;2022-09-13T08:18:00;9.60;;;7.00;;
68870;SDS011;55906;52.278;6.808;2022-09-13T08:20:26;13.95;;;8.40;;
68870;SDS011;55906;52.278;6.808;2022-09-13T08:22:53;10.73;;;6.40;;
68870;SDS011;55906;52.278;6.808;2022-09-13T08:25:21;9.47;;;5.97;;
68870;SDS011;55906;52.278;6.808;2022-09-13T08:27:48;11.75;;;6.88;;
68870;SDS011;55906;52.278;6.808;2022-09-13T08:30:14;14.20;;;7.47;;
68870;SDS011;55906;52.278;6.808;2022-09-13T08:32:41;13.95;;;7.00;;
68870;SDS011;55906;52.278;6.808;2022-09-13T08:35:08;9.43;;;6.18;;
68870;SDS011;55906;52.278;6.808;2022-09-13T08:37:34;8.73;;;4.87;;
68870;SDS011;55906;52.278;6.808;2022-09-13T08:40:01;7.07;;;4.70;;
68870;SDS011;55906;52.278;6.808;2022-09-13T08:42:32;9.27;;;4.97;;
68870;SDS011;55906;52.278;6.808;2022-09-13T08:45:10;13.00;;;5.78;;
68870;SDS011;55906;52.278;6.808;2022-09-13T08:47:39;6.53;;;4.00;;
68870;SDS011;55906;52.278;6.808;2022-09-13T08:50:11;6.90;;;4.10;;
68870;SDS011;55906;52.278;6.808;2022-09-13T08:52:47;6.95;;;3.90;;
68870;SDS011;55906;52.278;6.808;2022-09-13T08:55:28;8.70;;;4.60;;
68870;SDS011;55906;52.278;6.808;2022-09-13T08:58:14;7.50;;;4.07;;
68870;SDS011;55906;52.278;6.808;2022-09-13T09:00:59;6.78;;;3.90;;
68870;SDS011;55906;52.278;6.808;2022-09-13T09:03:34;6.40;;;4.20;;
68870;SDS011;55906;52.278;6.808;2022-09-13T09:06:08;6.13;;;3.72;;
68870;SDS011;55906;52.278;6.808;2022-09-13T09:08:39;7.40;;;3.95;;
68870;SDS011;55906;52.278;6.808;2022-09-13T09:11:12;6.97;;;4.05;;
68870;SDS011;55906;52.278;6.808;2022-09-13T09:13:51;7.35;;;4.07;;
68870;SDS011;55906;52.278;6.808;2022-09-13T09:16:27;6.90;;;4.68;;
68870;SDS011;55906;52.278;6.808;2022-09-13T09:19:03;6.80;;;3.97;;
68870;SDS011;55906;52.278;6.808;2022-09-13T09:21:35;7.75;;;4.40;;
68870;SDS011;55906;52.278;6.808;2022-09-13T09:24:02;5.95;;;3.75;;
68870;SDS011;55906;52.278;6.808;2022-09-13T09:26:30;7.05;;;4.03;;
68870;SDS011;55906;52.278;6.808;2022-09-13T09:28:59;5.88;;;3.47;;
68870;SDS011;55906;52.278;6.808;2022-09-13T09:31:28;4.88;;;3.50;;
68870;SDS011;55906;52.278;6.808;2022-09-13T09:34:07;4.90;;;2.92;;
68870;SDS011;55906;52.278;6.808;2022-09-13T09:36:43;6.78;;;3.90;;
68870;SDS011;55906;52.278;6.808;2022-09-13T09:39:13;5.82;;;3.22;;
68870;SDS011;55906;52.278;6.808;2022-09-13T09:41:40;7.18;;;4.80;;
68870;SDS011;55906;52.278;6.808;2022-09-13T09:44:15;5.90;;;3.90;;
68870;SDS011;55906;52.278;6.808;2022-09-13T09:46:44;6.60;;;3.60;;
68870;SDS011;55906;52.278;6.808;2022-09-13T09:49:15;5.75;;;3.20;;
68870;SDS011;55906;52.278;6.808;2022-09-13T09:52:03;4.40;;;2.65;;
68870;SDS011;55906;52.278;6.808;2022-09-13T09:54:33;4.70;;;2.80;;
68870;SDS011;55906;52.278;6.808;2022-09-13T09:57:00;3.97;;;2.70;;
68870;SDS011;55906;52.278;6.808;2022-09-13T09:59:28;5.15;;;2.50;;
68870;SDS011;55906;52.278;6.808;2022-09-13T10:01:57;4.45;;;2.53;;
68870;SDS011;55906;52.278;6.808;2022-09-13T10:04:26;5.95;;;3.10;;
68870;SDS011;55906;52.278;6.808;2022-09-13T10:07:07;5.57;;;2.78;;
68870;SDS011;55906;52.278;6.808;2022-09-13T10:09:36;3.95;;;2.13;;
68870;SDS011;55906;52.278;6.808;2022-09-13T10:12:03;4.55;;;2.10;;
68870;SDS011;55906;52.278;6.808;2022-09-13T10:17:14;4.60;;;2.40;;
68870;SDS011;55906;52.278;6.808;2022-09-13T10:19:50;4.20;;;2.47;;
68870;SDS011;55906;52.278;6.808;2022-09-13T10:22:22;6.50;;;2.65;;
68870;SDS011;55906;52.278;6.808;2022-09-13T10:24:49;5.18;;;2.63;;
68870;SDS011;55906;52.278;6.808;2022-09-13T10:27:19;3.78;;;2.40;;
68870;SDS011;55906;52.278;6.808;2022-09-13T10:29:51;4.55;;;1.88;;
68870;SDS011;55906;52.278;6.808;2022-09-13T10:32:23;4.30;;;2.30;;
68870;SDS011;55906;52.278;6.808;2022-09-13T10:34:50;5.70;;;2.17;;
68870;SDS011;55906;52.278;6.808;2022-09-13T10:37:19;4.43;;;2.10;;
68870;SDS011;55906;52.278;6.808;2022-09-13T10:39:53;4.95;;;2.55;;
68870;SDS011;55906;52.278;6.808;2022-09-13T10:42:24;3.88;;;2.10;;
68870;SDS011;55906;52.278;6.808;2022-09-13T10:44:55;5.05;;;1.92;;
68870;SDS011;55906;52.278;6.808;2022-09-13T10:47:25;4.15;;;1.88;;
68870;SDS011;55906;52.278;6.808;2022-09-13T10:49:57;4.00;;;1.75;;
68870;SDS011;55906;52.278;6.808;2022-09-13T10:52:41;4.28;;;2.20;;
68870;SDS011;55906;52.278;6.808;2022-09-13T10:55:25;5.03;;;2.20;;
68870;SDS011;55906;52.278;6.808;2022-09-13T10:58:13;4.88;;;1.80;;
68870;SDS011;55906;52.278;6.808;2022-09-13T11:00:53;4.50;;;1.88;;
68870;SDS011;55906;52.278;6.808;2022-09-13T11:07:04;5.25;;;1.70;;
68870;SDS011;55906;52.278;6.808;2022-09-13T11:09:42;4.53;;;1.60;;
68870;SDS011;55906;52.278;6.808;2022-09-13T11:12:16;3.67;;;1.60;;
68870;SDS011;55906;52.278;6.808;2022-09-13T11:14:50;4.70;;;1.70;;
68870;SDS011;55906;52.278;6.808;2022-09-13T11:17:32;4.93;;;1.30;;
68870;SDS011;55906;52.278;6.808;2022-09-13T11:20:20;3.25;;;1.30;;
68870;SDS011;55906;52.278;6.808;2022-09-13T11:23:04;2.55;;;0.98;;
68870;SDS011;55906;52.278;6.808;2022-09-13T11:25:49;2.40;;;1.00;;
68870;SDS011;55906;52.278;6.808;2022-09-13T11:28:24;4.03;;;1.20;;
68870;SDS011;55906;52.278;6.808;2022-09-13T11:31:03;3.53;;;1.10;;
68870;SDS011;55906;52.278;6.808;2022-09-13T11:33:52;3.83;;;1.20;;
68870;SDS011;55906;52.278;6.808;2022-09-13T11:36:36;3.35;;;1.00;;
68870;SDS011;55906;52.278;6.808;2022-09-13T11:39:13;3.20;;;1.17;;
68870;SDS011;55906;52.278;6.808;2022-09-13T11:41:49;3.80;;;1.23;;
68870;SDS011;55906;52.278;6.808;2022-09-13T11:47:43;3.35;;;1.00;;
68870;SDS011;55906;52.278;6.808;2022-09-13T11:50:41;2.95;;;0.90;;
68870;SDS011;55906;52.278;6.808;2022-09-13T11:53:29;3.75;;;1.00;;
68870;SDS011;55906;52.278;6.808;2022-09-13T11:56:09;3.43;;;0.80;;
68870;SDS011;55906;52.278;6.808;2022-09-13T11:58:43;4.10;;;1.08;;
68870;SDS011;55906;52.278;6.808;2022-09-13T12:01:15;3.45;;;0.88;;
68870;SDS011;55906;52.278;6.808;2022-09-13T12:03:46;3.13;;;0.98;;
68870;SDS011;55906;52.278;6.808;2022-09-13T12:06:20;3.97;;;0.82;;
68870;SDS011;55906;52.278;6.808;2022-09-13T12:08:49;2.67;;;0.80;;
68870;SDS011;55906;52.278;6.808;2022-09-13T12:11:20;3.15;;;0.90;;
68870;SDS011;55906;52.278;6.808;2022-09-13T12:13:50;4.47;;;0.90;;
68870;SDS011;55906;52.278;6.808;2022-09-13T12:16:21;3.78;;;0.95;;
68870;SDS011;55906;52.278;6.808;2022-09-13T12:18:52;4.47;;;1.00;;
68870;SDS011;55906;52.278;6.808;2022-09-13T12:21:24;4.33;;;0.93;;
68870;SDS011;55906;52.278;6.808;2022-09-13T12:23:56;1.83;;;0.60;;
68870;SDS011;55906;52.278;6.808;2022-09-13T12:26:29;4.07;;;1.10;;
68870;SDS011;55906;52.278;6.808;2022-09-13T12:29:00;4.35;;;0.80;;
68870;SDS011;55906;52.278;6.808;2022-09-13T12:31:32;3.10;;;0.70;;
68870;SDS011;55906;52.278;6.808;2022-09-13T12:33:59;2.67;;;0.60;;
68870;SDS011;55906;52.278;6.808;2022-09-13T12:45:37;2.78;;;0.63;;
68870;SDS011;55906;52.278;6.808;2022-09-13T12:48:18;3.57;;;0.83;;
68870;SDS011;55906;52.278;6.808;2022-09-13T12:50:59;2.03;;;0.60;;
68870;SDS011;55906;52.278;6.808;2022-09-13T12:56:35;2.17;;;0.40;;
68870;SDS011;55906;52.278;6.808;2022-09-13T12:59:13;2.25;;;0.50;;
68870;SDS011;55906;52.278;6.808;2022-09-13T13:01:52;3.13;;;0.50;;
68870;SDS011;55906;52.278;6.808;2022-09-13T13:04:22;2.53;;;0.50;;
68870;SDS011;55906;52.278;6.808;2022-09-13T13:06:52;2.97;;;0.50;;
68870;SDS011;55906;52.278;6.808;2022-09-13T13:09:24;4.00;;;0.50;;
68870;SDS011;55906;52.278;6.808;2022-09-13T13:12:01;2.13;;;0.50;;
68870;SDS011;55906;52.278;6.808;2022-09-13T13:14:30;2.07;;;0.40;;
68870;SDS011;55906;52.278;6.808;2022-09-13T13:23:23;2.20;;;0.50;;
68870;SDS011;55906;52.278;6.808;2022-09-13T13:25:56;4.55;;;0.75;;
68870;SDS011;55906;52.278;6.808;2022-09-13T13:31:33;3.13;;;0.60;;
68870;SDS011;55906;52.278;6.808;2022-09-13T13:40:11;4.38;;;0.70;;
68870;SDS011;55906;52.278;6.808;2022-09-13T13:42:46;2.43;;;0.50;;
68870;SDS011;55906;52.278;6.808;2022-09-13T13:45:19;2.17;;;0.50;;
68870;SDS011;55906;52.278;6.808;2022-09-13T13:53:43;3.35;;;0.50;;
68870;SDS011;55906;52.278;6.808;2022-09-13T13:56:18;4.13;;;0.53;;
68870;SDS011;55906;52.278;6.808;2022-09-13T13:58:53;2.47;;;0.57;;
68870;SDS011;55906;52.278;6.808;2022-09-13T14:01:26;3.20;;;0.50;;
68870;SDS011;55906;52.278;6.808;2022-09-13T14:07:09;2.50;;;0.57;;
68870;SDS011;55906;52.278;6.808;2022-09-13T14:09:45;1.30;;;0.30;;
68870;SDS011;55906;52.278;6.808;2022-09-13T14:12:25;3.63;;;0.80;;
68870;SDS011;55906;52.278;6.808;2022-09-13T14:15:01;4.13;;;0.50;;
68870;SDS011;55906;52.278;6.808;2022-09-13T14:20:36;3.38;;;0.40;;
68870;SDS011;55906;52.278;6.808;2022-09-13T14:23:10;2.80;;;0.50;;
68870;SDS011;55906;52.278;6.808;2022-09-13T14:25:37;2.20;;;0.50;;
68870;SDS011;55906;52.278;6.808;2022-09-13T14:28:05;2.88;;;0.50;;
68870;SDS011;55906;52.278;6.808;2022-09-13T14:30:33;2.47;;;0.40;;
68870;SDS011;55906;52.278;6.808;2022-09-13T14:33:03;2.65;;;0.30;;
68870;SDS011;55906;52.278;6.808;2022-09-13T14:35:32;2.10;;;0.40;;
68870;SDS011;55906;52.278;6.808;2022-09-13T14:38:10;2.20;;;0.40;;
68870;SDS011;55906;52.278;6.808;2022-09-13T14:40:38;2.63;;;0.50;;
68870;SDS011;55906;52.278;6.808;2022-09-13T14:43:13;2.42;;;0.40;;
68870;SDS011;55906;52.278;6.808;2022-09-13T14:45:40;2.63;;;0.50;;
68870;SDS011;55906;52.278;6.808;2022-09-13T14:48:11;2.53;;;0.40;;
68870;SDS011;55906;52.278;6.808;2022-09-13T14:50:46;2.92;;;0.50;;
68870;SDS011;55906;52.278;6.808;2022-09-13T14:53:16;3.28;;;0.50;;
68870;SDS011;55906;52.278;6.808;2022-09-13T14:55:47;2.50;;;0.40;;
68870;SDS011;55906;52.278;6.808;2022-09-13T14:58:18;2.88;;;0.52;;
68870;SDS011;55906;52.278;6.808;2022-09-13T15:00:48;3.20;;;0.70;;
68870;SDS011;55906;52.278;6.808;2022-09-13T15:03:18;3.92;;;0.60;;
68870;SDS011;55906;52.278;6.808;2022-09-13T15:05:49;2.55;;;0.60;;
68870;SDS011;55906;52.278;6.808;2022-09-13T15:08:24;2.08;;;0.55;;
68870;SDS011;55906;52.278;6.808;2022-09-13T15:11:01;2.90;;;0.68;;
68870;SDS011;55906;52.278;6.808;2022-09-13T15:13:30;3.80;;;0.87;;
68870;SDS011;55906;52.278;6.808;2022-09-13T15:15:58;3.40;;;0.70;;
68870;SDS011;55906;52.278;6.808;2022-09-13T15:18:28;2.65;;;0.88;;
68870;SDS011;55906;52.278;6.808;2022-09-13T15:20:57;4.68;;;0.75;;
68870;SDS011;55906;52.278;6.808;2022-09-13T15:23:26;2.80;;;0.60;;
68870;SDS011;55906;52.278;6.808;2022-09-13T15:25:56;2.00;;;0.50;;
68870;SDS011;55906;52.278;6.808;2022-09-13T15:28:27;2.58;;;0.50;;
68870;SDS011;55906;52.278;6.808;2022-09-13T15:30:55;2.88;;;0.60;;
68870;SDS011;55906;52.278;6.808;2022-09-13T15:33:25;2.33;;;0.50;;
68870;SDS011;55906;52.278;6.808;2022-09-13T15:38:59;2.50;;;0.57;;
68870;SDS011;55906;52.278;6.808;2022-09-13T15:41:28;3.05;;;0.60;;
68870;SDS011;55906;52.278;6.808;2022-09-13T15:43:57;3.35;;;0.57;;
68870;SDS011;55906;52.278;6.808;2022-09-13T15:46:24;2.65;;;0.50;;
68870;SDS011;55906;52.278;6.808;2022-09-13T15:48:53;4.45;;;0.70;;
68870;SDS011;55906;52.278;6.808;2022-09-13T15:51:22;3.27;;;0.70;;
68870;SDS011;55906;52.278;6.808;2022-09-13T15:53:48;3.55;;;0.60;;
68870;SDS011;55906;52.278;6.808;2022-09-13T15:56:16;2.55;;;0.50;;
68870;SDS011;55906;52.278;6.808;2022-09-13T15:58:44;4.10;;;0.60;;
68870;SDS011;55906;52.278;6.808;2022-09-13T16:01:11;2.50;;;0.60;;
68870;SDS011;55906;52.278;6.808;2022-09-13T16:03:39;3.83;;;0.70;;
68870;SDS011;55906;52.278;6.808;2022-09-13T16:06:07;3.65;;;0.60;;